createdAt,value
2018-10-18T00:01:46.519Z,1.00
2018-10-18T00:04:15.123Z,1.00
2018-10-18T00:06:43.495Z,1.00
2018-10-18T00:09:12.435Z,9.00
2018-10-18T00:11:40.783Z,7.00
2018-10-18T00:14:09.967Z,1.50
2018-10-18T00:16:38.571Z,1.00
2018-10-18T00:19:07.195Z,1.00
2018-10-18T00:21:35.959Z,8.60
2018-10-18T00:24:04.687Z,3.60
2018-10-18T00:26:33.407Z,4.60
2018-10-18T00:29:01.796Z,1.00
2018-10-18T00:31:30.379Z,1.00
2018-10-18T00:33:58.998Z,1.00
2018-10-18T00:36:27.678Z,1.00
2018-10-18T00:38:56.311Z,4.10
2018-10-18T00:41:24.674Z,7.90
2018-10-18T00:43:53.339Z,7.40
2018-10-18T00:46:21.682Z,13.40
2018-10-18T00:48:50.029Z,11.20
2018-10-18T00:51:18.935Z,6.90
2018-10-18T00:53:47.291Z,4.20
2018-10-18T00:56:16.019Z,2.50
2018-10-18T00:58:44.326Z,1.00
2018-10-18T01:01:13.350Z,1.70
2018-10-18T01:03:41.719Z,3.90
2018-10-18T01:06:10.146Z,4.60
2018-10-18T01:08:38.484Z,5.70
2018-10-18T01:11:06.886Z,10.00
2018-10-18T01:13:35.227Z,11.30
2018-10-18T01:16:03.762Z,12.50
2018-10-18T01:18:32.136Z,13.30
2018-10-18T01:21:00.790Z,13.20
2018-10-18T01:23:29.163Z,13.80
2018-10-18T01:25:57.573Z,13.30
2018-10-18T01:28:25.910Z,15.70
2018-10-18T01:30:54.250Z,14.60
2018-10-18T01:33:22.855Z,21.90
2018-10-18T01:35:51.515Z,24.70
2018-10-18T01:38:20.179Z,16.10
2018-10-18T01:40:49.147Z,23.80
2018-10-18T01:43:17.834Z,25.50
2018-10-18T01:45:46.446Z,32.10
2018-10-18T01:48:14.876Z,41.80
2018-10-18T01:50:43.194Z,48.30
2018-10-18T01:53:11.538Z,52.40
2018-10-18T01:55:39.903Z,48.30
2018-10-18T01:58:08.574Z,47.00
2018-10-18T02:00:37.027Z,43.90
2018-10-18T02:03:05.883Z,37.80
2018-10-18T02:05:34.914Z,34.70
2018-10-18T02:08:05.082Z,38.40
2018-10-18T02:10:35.685Z,36.00
2018-10-18T02:13:04.777Z,32.20
2018-10-18T02:15:33.716Z,26.60
2018-10-18T02:18:02.386Z,27.30
2018-10-18T02:20:30.986Z,33.90
2018-10-18T02:22:59.355Z,28.40
2018-10-18T02:25:27.831Z,21.40
2018-10-18T02:27:58.389Z,24.10
2018-10-18T02:30:27.002Z,30.80
2018-10-18T02:32:55.658Z,27.80
2018-10-18T02:35:24.567Z,22.10
2018-10-18T02:37:53.063Z,15.20
2018-10-18T02:40:21.407Z,19.60
2018-10-18T02:42:50.060Z,24.60
2018-10-18T02:45:18.419Z,46.50
2018-10-18T02:47:46.786Z,44.70
2018-10-18T02:50:15.167Z,59.30
2018-10-18T02:52:43.918Z,59.20
2018-10-18T02:55:12.292Z,54.80
2018-10-18T02:57:40.684Z,50.10
2018-10-18T03:00:09.098Z,44.80
2018-10-18T03:02:38.019Z,43.60
2018-10-18T03:05:08.451Z,41.70
2018-10-18T03:07:37.138Z,44.70
2018-10-18T03:10:07.430Z,44.30
2018-10-18T03:12:35.975Z,39.80
2018-10-18T03:15:05.561Z,35.10
2018-10-18T03:17:34.003Z,33.00
2018-10-18T03:20:03.374Z,30.70
2018-10-18T03:22:31.746Z,32.30
2018-10-18T03:25:00.451Z,29.10
2018-10-18T03:27:28.901Z,36.80
2018-10-18T03:29:57.680Z,36.80
2018-10-18T03:32:26.056Z,37.30
2018-10-18T03:34:54.415Z,33.20
2018-10-18T03:37:22.807Z,28.90
2018-10-18T03:39:51.403Z,29.00
2018-10-18T03:42:19.791Z,30.50
2018-10-18T03:44:48.339Z,29.90
2018-10-18T03:47:17.086Z,32.70
2018-10-18T03:49:45.499Z,35.30
2018-10-18T03:52:13.870Z,33.80
2018-10-18T03:54:42.239Z,30.70
2018-10-18T03:57:10.854Z,24.50
2018-10-18T03:59:40.125Z,24.20
2018-10-18T04:02:08.443Z,25.40
2018-10-18T04:04:37.070Z,26.60
2018-10-18T04:07:06.104Z,27.00
2018-10-18T04:09:34.480Z,26.00
2018-10-18T04:12:02.997Z,26.30
2018-10-18T04:14:31.299Z,27.90
2018-10-18T04:16:59.658Z,27.50
2018-10-18T04:19:28.247Z,24.30
2018-10-18T04:21:56.631Z,21.90
2018-10-18T04:24:25.079Z,23.50
2018-10-18T04:27:00.099Z,22.70
2018-10-18T04:29:28.784Z,22.80
2018-10-18T04:31:57.467Z,20.50
2018-10-18T04:34:26.067Z,19.30
2018-10-18T04:36:54.734Z,19.60
2018-10-18T04:39:23.452Z,20.50
2018-10-18T04:41:51.916Z,22.30
2018-10-18T04:44:20.510Z,20.20
2018-10-18T04:46:48.911Z,21.70
2018-10-18T04:49:17.814Z,22.30
2018-10-18T04:51:46.166Z,22.70
2018-10-18T04:54:15.187Z,20.90
2018-10-18T04:56:43.871Z,19.60
2018-10-18T04:59:12.203Z,23.50
2018-10-18T05:01:40.830Z,26.10
2018-10-18T05:04:09.210Z,30.60
2018-10-18T05:06:37.882Z,38.00
2018-10-18T05:09:07.342Z,42.70
2018-10-18T05:11:35.696Z,44.20
2018-10-18T05:14:04.058Z,40.30
2018-10-18T05:16:32.663Z,49.80
2018-10-18T05:19:01.315Z,34.50
2018-10-18T05:21:30.250Z,28.50
2018-10-18T05:23:58.942Z,39.30
2018-10-18T05:26:28.047Z,41.40
2018-10-18T05:28:56.451Z,47.00
2018-10-18T05:31:24.891Z,34.40
2018-10-18T05:33:53.210Z,40.10
2018-10-18T05:36:21.599Z,44.80
2018-10-18T05:38:49.993Z,39.30
2018-10-18T05:41:18.606Z,28.10
2018-10-18T05:43:46.959Z,25.10
2018-10-18T05:46:15.367Z,30.80
2018-10-18T05:48:43.975Z,37.30
2018-10-18T05:51:12.923Z,42.90
2018-10-18T05:53:41.442Z,29.90
2018-10-18T05:56:10.419Z,33.00
2018-10-18T05:58:39.134Z,30.70
2018-10-18T06:01:08.404Z,29.70
2018-10-18T06:03:37.115Z,29.00
2018-10-18T06:06:06.135Z,24.80
2018-10-18T06:08:34.631Z,10.80
2018-10-18T06:11:14.523Z,12.70
2018-10-18T06:13:44.008Z,17.70
2018-10-18T06:16:13.039Z,16.10
2018-10-18T06:18:41.495Z,17.00
2018-10-18T06:21:09.967Z,26.70
2018-10-18T06:23:38.436Z,15.90
2018-10-18T06:26:07.352Z,22.80
2018-10-18T06:28:35.851Z,24.50
2018-10-18T06:31:05.100Z,2.00
2018-10-18T06:33:33.787Z,4.20
2018-10-18T06:36:02.265Z,3.40
2018-10-18T06:38:31.583Z,7.60
2018-10-18T06:41:00.418Z,3.40
2018-10-18T06:43:33.654Z,8.40
2018-10-18T06:46:02.143Z,2.30
2018-10-18T06:48:30.616Z,1.00
2018-10-18T06:50:59.555Z,1.00
2018-10-18T06:53:28.032Z,1.00
2018-10-18T06:55:56.866Z,1.00
2018-10-18T06:58:25.582Z,1.00
2018-10-18T07:00:54.031Z,1.00
2018-10-18T07:03:23.255Z,1.00
2018-10-18T07:05:52.041Z,1.00
2018-10-18T07:08:20.662Z,1.00
2018-10-18T07:10:49.185Z,1.00
2018-10-18T07:13:17.899Z,1.00
2018-10-18T07:15:46.583Z,1.00
2018-10-18T07:18:15.173Z,1.00
2018-10-18T07:20:43.563Z,1.00
2018-10-18T07:23:12.063Z,1.00
2018-10-18T07:25:40.531Z,1.00
2018-10-18T07:28:09.067Z,1.00
2018-10-18T07:30:37.978Z,1.00
2018-10-18T07:33:06.454Z,1.00
2018-10-18T07:35:34.988Z,1.00
2018-10-18T07:38:03.511Z,1.00
2018-10-18T07:40:32.206Z,1.00
2018-10-18T07:43:01.422Z,1.00
2018-10-18T07:45:30.348Z,1.00
2018-10-18T07:47:58.884Z,1.00
2018-10-18T07:50:28.381Z,1.00
2018-10-18T07:52:57.194Z,1.00
2018-10-18T07:55:25.979Z,1.00
2018-10-18T07:57:54.591Z,1.00
2018-10-18T08:00:23.417Z,1.00
2018-10-18T08:02:51.804Z,1.00
2018-10-18T08:05:20.279Z,1.00
2018-10-18T08:07:49.614Z,1.00
2018-10-18T08:10:19.224Z,1.00
2018-10-18T08:12:48.295Z,1.00
2018-10-18T08:15:17.535Z,1.00
2018-10-18T08:17:46.418Z,1.00
2018-10-18T08:20:15.539Z,1.00
2018-10-18T08:22:44.451Z,1.00
2018-10-18T08:25:12.901Z,99.90
2018-10-18T08:27:41.670Z,1.00
2018-10-18T08:30:12.105Z,99.90
2018-10-18T08:32:40.879Z,1.00
2018-10-18T08:35:10.483Z,99.90
2018-10-18T08:37:39.327Z,99.90
2018-10-18T08:40:08.202Z,99.90
2018-10-18T08:42:36.990Z,92.20
2018-10-18T08:45:07.191Z,99.90
2018-10-18T08:47:35.642Z,1.00
2018-10-18T08:50:04.854Z,1.00
2018-10-18T08:52:33.188Z,99.90
2018-10-18T08:55:01.660Z,11.40
2018-10-18T08:57:30.709Z,1.00
2018-10-18T08:59:59.211Z,99.90
2018-10-18T09:02:28.652Z,99.90
2018-10-18T09:04:57.403Z,1.00
2018-10-18T09:07:26.784Z,1.00
2018-10-18T09:09:55.926Z,1.00
2018-10-18T09:12:31.470Z,1.00
2018-10-18T09:15:00.474Z,1.00
2018-10-18T09:17:29.176Z,99.90
2018-10-18T09:19:58.234Z,1.00
2018-10-18T09:22:26.722Z,99.90
2018-10-18T09:24:55.464Z,99.90
2018-10-18T09:27:24.059Z,99.90
2018-10-18T09:29:52.719Z,99.90
2018-10-18T09:32:21.211Z,99.90
2018-10-18T09:34:49.683Z,57.60
2018-10-18T09:37:18.451Z,1.00
2018-10-18T09:39:47.171Z,1.00
2018-10-18T09:42:16.336Z,1.00
2018-10-18T09:44:46.003Z,1.00
2018-10-18T09:47:14.693Z,1.00
2018-10-18T09:49:43.415Z,1.00
2018-10-18T09:52:12.795Z,1.00
2018-10-18T09:54:41.811Z,1.00
2018-10-18T09:57:10.663Z,1.00
2018-10-18T09:59:39.227Z,1.00
2018-10-18T10:02:12.955Z,1.00
2018-10-18T10:04:41.687Z,1.00
2018-10-18T10:07:10.183Z,1.00
2018-10-18T10:09:40.073Z,1.00
2018-10-18T10:12:08.584Z,1.00
2018-10-18T10:14:37.342Z,1.00
2018-10-18T10:17:06.597Z,1.00
2018-10-18T10:19:35.135Z,1.00
2018-10-18T10:22:03.831Z,1.00
2018-10-18T10:24:32.319Z,1.00
2018-10-18T10:27:00.883Z,1.00
2018-10-18T10:29:29.316Z,1.00
2018-10-18T10:31:57.778Z,1.00
2018-10-18T10:34:26.827Z,1.00
2018-10-18T10:36:55.624Z,1.00
2018-10-18T10:39:24.059Z,1.00
2018-10-18T10:41:53.140Z,1.00
2018-10-18T10:44:21.880Z,1.00
2018-10-18T10:46:50.966Z,1.00
2018-10-18T10:49:19.451Z,1.00
2018-10-18T10:51:47.871Z,1.00
2018-10-18T10:54:16.356Z,1.00
2018-10-18T10:56:44.918Z,1.00
2018-10-18T10:59:16.700Z,1.00
2018-10-18T11:01:45.443Z,1.00
2018-10-18T11:04:14.273Z,1.00
2018-10-18T11:06:43.122Z,99.90
2018-10-18T11:09:12.795Z,99.90
2018-10-18T11:11:41.468Z,99.90
2018-10-18T11:14:09.973Z,99.90
2018-10-18T11:16:39.186Z,99.90
2018-10-18T11:19:08.003Z,99.90
2018-10-18T11:21:37.221Z,99.90
2018-10-18T11:24:05.774Z,99.90
2018-10-18T11:26:34.270Z,99.90
2018-10-18T11:29:02.923Z,99.90
2018-10-18T11:31:31.759Z,99.90
2018-10-18T11:34:00.786Z,99.90
2018-10-18T11:36:29.256Z,99.90
2018-10-18T11:38:57.986Z,99.90
2018-10-18T11:41:26.491Z,99.90
2018-10-18T11:43:54.988Z,99.90
2018-10-18T11:46:23.467Z,99.90
2018-10-18T11:48:51.925Z,99.90
2018-10-18T11:51:21.160Z,99.90
2018-10-18T11:53:49.587Z,99.90
2018-10-18T11:56:18.332Z,99.90
2018-10-18T11:58:46.792Z,99.90
2018-10-18T12:01:15.391Z,99.90
2018-10-18T12:03:44.199Z,99.90
2018-10-18T12:06:12.927Z,99.90
2018-10-18T12:08:41.454Z,99.90
2018-10-18T12:11:10.559Z,99.90
2018-10-18T12:13:39.041Z,99.90
2018-10-18T12:16:07.584Z,99.90
2018-10-18T12:18:36.642Z,99.90
2018-10-18T12:21:05.190Z,99.90
2018-10-18T12:23:33.643Z,99.90
2018-10-18T12:26:02.165Z,99.90
2018-10-18T12:28:30.967Z,99.90
2018-10-18T12:30:59.671Z,99.90
2018-10-18T12:33:28.463Z,99.90
2018-10-18T12:35:56.950Z,99.90
2018-10-18T12:38:25.376Z,99.90
2018-10-18T12:40:54.442Z,99.90
2018-10-18T12:43:23.670Z,99.90
2018-10-18T12:45:52.443Z,99.90
2018-10-18T12:48:21.537Z,99.90
2018-10-18T12:53:18.948Z,99.90
2018-10-18T12:55:47.474Z,99.90
2018-10-18T12:58:16.638Z,99.90
2018-10-18T13:00:45.450Z,99.90
2018-10-18T13:03:14.356Z,99.90
2018-10-18T13:05:43.162Z,99.90
2018-10-18T13:08:11.659Z,99.90
2018-10-18T13:10:40.364Z,99.90
2018-10-18T13:13:09.079Z,99.90
2018-10-18T13:15:38.023Z,99.90
2018-10-18T13:18:06.942Z,99.90
2018-10-18T13:20:35.334Z,99.90
2018-10-18T13:23:04.145Z,99.90
2018-10-18T13:25:34.122Z,99.90
2018-10-18T13:28:02.863Z,99.90
2018-10-18T13:30:31.429Z,99.90
2018-10-18T13:32:59.867Z,99.90
2018-10-18T13:35:28.547Z,99.90
2018-10-18T13:37:57.023Z,99.90
2018-10-18T13:40:26.031Z,99.90
2018-10-18T13:42:55.470Z,99.90
2018-10-18T13:45:24.551Z,99.90
2018-10-18T13:47:53.424Z,99.90
2018-10-18T13:50:21.856Z,99.90
2018-10-18T13:52:50.627Z,99.90
2018-10-18T13:55:19.319Z,99.90
2018-10-18T13:57:47.839Z,99.90
2018-10-18T14:00:21.332Z,99.90
2018-10-18T14:02:51.499Z,99.90
2018-10-18T14:05:21.590Z,99.90
2018-10-18T14:07:51.504Z,99.90
2018-10-18T14:10:20.098Z,99.90
2018-10-18T14:12:49.342Z,99.90
2018-10-18T14:15:18.316Z,99.90
2018-10-18T14:17:47.137Z,99.90
2018-10-18T14:20:15.602Z,99.90
2018-10-18T14:22:44.058Z,99.90
2018-10-18T14:25:13.311Z,99.90
2018-10-18T14:27:41.820Z,99.90
2018-10-18T14:30:11.424Z,99.90
2018-10-18T14:32:40.103Z,99.90
2018-10-18T14:35:10.306Z,99.90
2018-10-18T14:37:38.923Z,99.90
2018-10-18T14:40:08.762Z,99.90
2018-10-18T14:42:37.250Z,99.90
2018-10-18T14:45:07.329Z,99.90
2018-10-18T14:47:36.446Z,99.90
2018-10-18T14:50:05.901Z,99.90
2018-10-18T14:52:34.847Z,99.90
2018-10-18T14:55:03.304Z,99.90
2018-10-18T14:57:31.818Z,99.90
2018-10-18T15:00:00.301Z,99.90
2018-10-18T15:02:29.199Z,99.90
2018-10-18T15:04:58.237Z,99.90
2018-10-18T15:07:26.746Z,99.90
2018-10-18T15:09:55.254Z,99.90
2018-10-18T15:12:23.962Z,99.90
2018-10-18T15:14:52.429Z,99.90
2018-10-18T15:17:20.906Z,99.90
2018-10-18T15:19:49.874Z,99.90
2018-10-18T15:22:18.331Z,99.90
2018-10-18T15:24:47.167Z,99.90
2018-10-18T15:27:15.715Z,99.90
2018-10-18T15:29:44.224Z,99.90
2018-10-18T15:32:12.715Z,99.90
2018-10-18T15:34:41.135Z,99.90
2018-10-18T15:37:10.563Z,99.90
2018-10-18T15:39:39.291Z,99.90
2018-10-18T15:42:07.784Z,99.90
2018-10-18T15:44:36.318Z,99.90
2018-10-18T15:47:05.078Z,99.90
2018-10-18T15:49:34.171Z,99.90
2018-10-18T15:52:03.055Z,99.90
2018-10-18T15:54:32.158Z,99.90
2018-10-18T15:57:00.658Z,99.90
2018-10-18T15:59:29.127Z,99.90
2018-10-18T16:01:58.303Z,99.90
2018-10-18T16:04:27.047Z,99.90
2018-10-18T16:06:55.783Z,99.90
2018-10-18T16:09:24.470Z,99.90
2018-10-18T16:11:52.935Z,99.90
2018-10-18T16:14:21.708Z,99.90
2018-10-18T16:16:50.106Z,99.90
2018-10-18T16:19:18.946Z,99.90
2018-10-18T16:21:47.999Z,99.90
2018-10-18T16:24:17.167Z,99.90
2018-10-18T16:26:47.308Z,99.90
2018-10-18T16:29:16.079Z,99.90
2018-10-18T16:31:44.514Z,99.90
2018-10-18T16:34:13.703Z,99.90
2018-10-18T16:36:42.406Z,99.90
2018-10-18T16:39:12.635Z,1.00
2018-10-18T16:41:41.820Z,1.00
2018-10-18T16:44:10.845Z,1.00
2018-10-18T16:46:39.582Z,1.00
2018-10-18T16:49:08.586Z,1.00
2018-10-18T16:51:37.351Z,1.00
2018-10-18T16:54:06.883Z,1.00
2018-10-18T16:56:35.319Z,1.00
2018-10-18T16:59:03.891Z,1.00
2018-10-18T17:01:32.679Z,1.00
2018-10-18T17:04:01.798Z,1.00
2018-10-18T17:06:30.985Z,1.00
2018-10-18T17:08:59.399Z,1.00
2018-10-18T17:11:28.293Z,1.00
2018-10-18T17:13:56.808Z,1.00
2018-10-18T17:16:25.243Z,1.00
2018-10-18T17:18:53.710Z,1.00
2018-10-18T17:21:22.494Z,11.00
2018-10-18T17:23:51.822Z,1.00
2018-10-18T17:26:20.618Z,1.20
2018-10-18T17:28:51.854Z,99.90
2018-10-18T17:31:22.195Z,99.90
2018-10-18T17:33:50.691Z,99.90
2018-10-18T17:36:19.254Z,99.90
2018-10-18T17:38:48.275Z,1.00
2018-10-18T17:41:17.015Z,1.00
2018-10-18T17:43:45.479Z,1.00
2018-10-18T17:46:14.963Z,1.00
2018-10-18T17:48:43.907Z,27.80
2018-10-18T17:51:12.440Z,60.30
2018-10-18T17:53:40.879Z,99.90
2018-10-18T17:56:10.231Z,1.00
2018-10-18T17:58:38.666Z,1.00
2018-10-18T18:01:07.174Z,99.90
2018-10-18T18:03:36.523Z,73.30
2018-10-18T18:06:05.544Z,1.00
2018-10-18T18:08:33.949Z,36.10
2018-10-18T18:11:02.732Z,99.90
2018-10-18T18:13:31.185Z,1.00
2018-10-18T18:16:00.306Z,99.90
2018-10-18T18:18:28.799Z,98.20
2018-10-18T18:20:57.957Z,1.00
2018-10-18T18:23:26.436Z,99.90
2018-10-18T18:25:54.915Z,99.90
2018-10-18T18:28:23.534Z,1.00
2018-10-18T18:30:52.184Z,1.00
2018-10-18T18:33:20.927Z,1.00
2018-10-18T18:35:49.333Z,1.00
2018-10-18T18:38:18.162Z,1.00
2018-10-18T18:40:46.809Z,1.00
2018-10-18T18:43:15.529Z,1.00
2018-10-18T18:45:44.963Z,99.90
2018-10-18T18:48:13.869Z,1.00
2018-10-18T18:50:42.563Z,1.00
2018-10-18T18:53:11.055Z,1.00
2018-10-18T18:55:40.117Z,99.90
2018-10-18T18:58:08.507Z,99.90
2018-10-18T19:00:36.891Z,99.90
2018-10-18T19:03:05.796Z,99.90
2018-10-18T19:05:35.599Z,1.00
2018-10-18T19:08:04.045Z,99.90
2018-10-18T19:10:32.419Z,99.90
2018-10-18T19:13:01.034Z,1.00
2018-10-18T19:15:29.883Z,99.90
2018-10-18T19:17:58.652Z,99.90
2018-10-18T19:20:27.006Z,99.90
2018-10-18T19:22:56.019Z,1.00
2018-10-18T19:25:24.734Z,99.90
2018-10-18T19:27:53.334Z,1.00
2018-10-18T19:30:21.731Z,1.00
2018-10-18T19:32:50.806Z,99.90
2018-10-18T19:35:20.139Z,99.90
2018-10-18T19:37:48.794Z,99.90
2018-10-18T19:40:17.163Z,99.90
2018-10-18T19:42:45.755Z,99.90
2018-10-18T19:45:14.143Z,99.90
2018-10-18T19:47:42.523Z,99.90
2018-10-18T19:50:11.060Z,99.90
2018-10-18T19:52:39.745Z,1.00
2018-10-18T19:55:08.744Z,1.00
2018-10-18T19:57:37.356Z,1.00
2018-10-18T20:00:07.382Z,1.00
2018-10-18T20:02:35.741Z,1.00
2018-10-18T20:05:04.202Z,1.00
2018-10-18T20:07:32.612Z,1.00
2018-10-18T20:10:01.263Z,1.00
2018-10-18T20:12:29.927Z,1.00
2018-10-18T20:14:58.470Z,1.00
2018-10-18T20:17:26.857Z,1.00
2018-10-18T20:19:55.239Z,1.00
2018-10-18T20:22:24.489Z,1.00
2018-10-18T20:24:52.922Z,1.00
2018-10-18T20:27:21.475Z,1.00
2018-10-18T20:29:50.062Z,1.00
2018-10-18T20:32:18.476Z,1.00
2018-10-18T20:34:46.847Z,1.00
2018-10-18T20:37:16.004Z,1.00
2018-10-18T20:39:44.649Z,1.00
2018-10-18T20:42:13.288Z,1.00
2018-10-18T20:44:41.999Z,1.00
2018-10-18T20:47:11.312Z,1.00
2018-10-18T20:49:40.003Z,1.00
2018-10-18T20:52:09.034Z,1.00
2018-10-18T20:54:37.658Z,1.00
2018-10-18T20:57:06.088Z,1.00
2018-10-18T20:59:35.728Z,1.00
2018-10-18T21:02:05.528Z,1.00
2018-10-18T21:04:34.719Z,1.00
2018-10-18T21:07:03.094Z,1.00
2018-10-18T21:09:32.002Z,1.00
2018-10-18T21:12:00.672Z,1.00
2018-10-18T21:14:29.558Z,1.00
2018-10-18T21:16:58.108Z,1.00
2018-10-18T21:19:26.584Z,1.00
2018-10-18T21:21:55.597Z,1.00
2018-10-18T21:24:23.907Z,1.00
2018-10-18T21:26:52.382Z,1.00
2018-10-18T21:29:21.443Z,1.00
2018-10-18T21:31:49.822Z,1.00
2018-10-18T21:34:18.263Z,1.00
2018-10-18T21:36:46.551Z,1.00
2018-10-18T21:39:25.694Z,1.00
2018-10-18T21:41:54.062Z,1.00
2018-10-18T21:44:23.183Z,1.00
2018-10-18T21:46:51.551Z,1.00
2018-10-18T21:49:19.898Z,1.00
2018-10-18T21:51:48.258Z,1.00
2018-10-18T21:54:16.906Z,1.00
2018-10-18T21:56:53.246Z,1.00
2018-10-18T21:59:21.720Z,1.00
2018-10-18T22:01:50.583Z,1.00
2018-10-18T22:04:19.267Z,1.00
2018-10-18T22:06:48.095Z,1.00
2018-10-18T22:09:17.209Z,1.00
2018-10-18T22:11:45.738Z,1.00
2018-10-18T22:14:14.161Z,1.00
2018-10-18T22:16:42.910Z,1.00
2018-10-18T22:19:11.909Z,1.00
2018-10-18T22:21:40.574Z,1.00
2018-10-18T22:24:10.186Z,1.00
2018-10-18T22:26:38.683Z,1.00
2018-10-18T22:29:08.116Z,1.00
2018-10-18T22:31:36.658Z,1.00
2018-10-18T22:34:05.851Z,1.00
2018-10-18T22:36:34.236Z,1.00
2018-10-18T22:39:03.591Z,1.00
2018-10-18T22:41:32.214Z,1.00
2018-10-18T22:44:00.619Z,1.00
2018-10-18T22:46:29.162Z,1.50
2018-10-18T22:48:57.546Z,1.00
2018-10-18T22:51:26.259Z,1.00
2018-10-18T22:53:54.632Z,1.00
2018-10-18T22:56:23.815Z,18.70
2018-10-18T22:58:52.200Z,6.90
2018-10-18T23:01:20.583Z,13.90
2018-10-18T23:03:48.949Z,5.40
2018-10-18T23:06:17.330Z,1.00
2018-10-18T23:08:45.735Z,1.00
2018-10-18T23:11:14.236Z,1.00
2018-10-18T23:13:43.120Z,1.00
2018-10-18T23:16:11.491Z,1.00
2018-10-18T23:18:39.867Z,5.60
2018-10-18T23:21:08.277Z,6.90
2018-10-18T23:23:36.896Z,8.60
2018-10-18T23:26:05.782Z,2.30
2018-10-18T23:28:34.618Z,15.70
2018-10-18T23:31:02.974Z,12.20
2018-10-18T23:33:31.635Z,12.00
2018-10-18T23:36:00.147Z,15.30
2018-10-18T23:38:28.527Z,9.10
2018-10-18T23:40:57.221Z,13.40
2018-10-18T23:43:25.582Z,12.20
2018-10-18T23:45:55.099Z,18.20
2018-10-18T23:48:23.671Z,12.70
2018-10-18T23:50:53.014Z,13.50
2018-10-18T23:53:21.915Z,13.00
2018-10-18T23:55:50.286Z,10.80
2018-10-18T23:58:18.677Z,8.90
